createdAt,value
2019-01-15T00:00:16.152Z,70.86
2019-01-15T00:02:43.202Z,70.96
2019-01-15T00:05:10.284Z,71.14
2019-01-15T00:07:37.348Z,70.47
2019-01-15T00:10:05.172Z,70.28
2019-01-15T00:12:32.224Z,70.09
2019-01-15T00:14:59.268Z,69.93
2019-01-15T00:17:26.337Z,69.29
2019-01-15T00:19:53.388Z,69.46
2019-01-15T00:22:20.466Z,69.67
2019-01-15T00:24:47.500Z,69.39
2019-01-15T00:27:14.528Z,69.42
2019-01-15T00:29:41.585Z,69.55
2019-01-15T00:32:08.643Z,69.51
2019-01-15T00:34:35.686Z,69.77
2019-01-15T00:37:02.746Z,70.06
2019-01-15T00:39:29.784Z,70.05
2019-01-15T00:41:56.827Z,70.13
2019-01-15T00:44:23.910Z,70.31
2019-01-15T00:46:50.958Z,70.49
2019-01-15T00:49:17.989Z,70.60
2019-01-15T00:51:45.030Z,70.64
2019-01-15T00:54:12.090Z,70.73
2019-01-15T00:56:39.170Z,70.95
2019-01-15T00:59:06.240Z,71.16
2019-01-15T01:01:33.314Z,71.43
2019-01-15T01:04:00.358Z,71.80
2019-01-15T01:06:27.418Z,71.93
2019-01-15T01:08:54.459Z,72.07
2019-01-15T01:11:21.511Z,72.37
2019-01-15T01:13:48.556Z,72.56
2019-01-15T01:16:15.693Z,72.70
2019-01-15T01:18:42.759Z,72.93
2019-01-15T01:21:09.819Z,73.06
2019-01-15T01:23:36.881Z,73.00
2019-01-15T01:26:03.952Z,73.02
2019-01-15T01:28:31.017Z,73.04
2019-01-15T01:30:58.076Z,73.05
2019-01-15T01:33:25.123Z,73.04
2019-01-15T01:35:52.180Z,72.97
2019-01-15T01:38:19.252Z,73.05
2019-01-15T01:40:46.332Z,73.16
2019-01-15T01:43:13.381Z,73.12
2019-01-15T01:45:40.456Z,73.14
2019-01-15T01:48:07.484Z,73.09
2019-01-15T01:50:34.541Z,73.07
2019-01-15T01:53:01.594Z,73.07
2019-01-15T01:55:28.660Z,73.05
2019-01-15T01:57:55.706Z,73.04
2019-01-15T02:00:23.466Z,74.44
2019-01-15T02:02:50.604Z,75.13
2019-01-15T02:05:17.657Z,73.97
2019-01-15T02:07:44.741Z,75.14
2019-01-15T02:10:13.989Z,73.70
2019-01-15T02:12:41.040Z,71.60
2019-01-15T02:15:09.549Z,70.88
2019-01-15T02:17:36.610Z,71.29
2019-01-15T02:20:05.665Z,69.64
2019-01-15T02:22:32.744Z,69.37
2019-01-15T02:24:59.767Z,68.61
2019-01-15T02:27:27.226Z,68.27
2019-01-15T02:29:54.267Z,68.76
2019-01-15T02:32:21.310Z,68.31
2019-01-15T02:34:48.424Z,68.18
2019-01-15T02:37:15.501Z,68.27
2019-01-15T02:39:42.536Z,68.79
2019-01-15T02:42:09.594Z,69.42
2019-01-15T02:44:36.656Z,70.09
2019-01-15T02:47:03.715Z,70.65
2019-01-15T02:49:30.746Z,71.04
2019-01-15T02:51:57.775Z,71.64
2019-01-15T02:54:24.816Z,71.86
2019-01-15T02:56:51.862Z,71.98
2019-01-15T02:59:18.917Z,72.14
2019-01-15T03:01:45.981Z,72.29
2019-01-15T03:04:13.060Z,72.62
2019-01-15T03:06:40.119Z,72.94
2019-01-15T03:09:07.673Z,73.45
2019-01-15T03:11:34.653Z,73.73
2019-01-15T03:14:01.711Z,73.81
2019-01-15T03:16:28.803Z,74.00
2019-01-15T03:18:55.861Z,74.13
2019-01-15T03:21:22.933Z,74.34
2019-01-15T03:23:50.020Z,74.31
2019-01-15T03:26:17.093Z,74.37
2019-01-15T03:28:44.171Z,74.26
2019-01-15T03:31:11.231Z,74.27
2019-01-15T03:33:38.276Z,74.15
2019-01-15T03:36:05.338Z,74.15
2019-01-15T03:38:32.402Z,73.53
2019-01-15T03:40:59.476Z,73.70
2019-01-15T03:43:26.525Z,74.15
2019-01-15T03:45:53.586Z,74.70
2019-01-15T03:48:20.659Z,74.96
2019-01-15T03:50:47.699Z,75.13
2019-01-15T03:53:14.775Z,75.52
2019-01-15T03:55:41.841Z,75.41
2019-01-15T03:58:08.908Z,75.39
2019-01-15T04:00:35.982Z,75.22
2019-01-15T04:03:03.023Z,74.13
2019-01-15T04:05:30.289Z,73.97
2019-01-15T04:07:58.177Z,73.86
2019-01-15T04:10:25.251Z,73.35
2019-01-15T04:12:52.326Z,73.21
2019-01-15T04:15:19.479Z,73.00
2019-01-15T04:17:46.538Z,73.12
2019-01-15T04:20:14.169Z,72.81
2019-01-15T04:22:41.327Z,72.45
2019-01-15T04:25:09.094Z,72.59
2019-01-15T04:27:36.148Z,72.38
2019-01-15T04:30:05.016Z,72.07
2019-01-15T04:32:32.073Z,71.58
2019-01-15T04:34:59.099Z,71.08
2019-01-15T04:37:26.136Z,71.08
2019-01-15T04:39:53.192Z,70.86
2019-01-15T04:42:20.239Z,70.53
2019-01-15T04:44:47.258Z,70.09
2019-01-15T04:47:14.289Z,69.83
2019-01-15T04:49:41.334Z,70.22
2019-01-15T04:52:08.367Z,70.20
2019-01-15T04:54:35.412Z,70.27
2019-01-15T04:57:03.656Z,70.55
2019-01-15T04:59:31.124Z,70.80
2019-01-15T05:01:58.160Z,71.07
2019-01-15T05:04:25.226Z,71.35
2019-01-15T05:06:52.258Z,71.50
2019-01-15T05:09:19.293Z,71.75
2019-01-15T05:11:46.337Z,71.93
2019-01-15T05:14:13.363Z,72.13
2019-01-15T05:16:40.463Z,72.21
2019-01-15T05:19:07.519Z,72.32
2019-01-15T05:21:34.566Z,72.37
2019-01-15T05:24:01.630Z,72.40
2019-01-15T05:26:28.675Z,72.44
2019-01-15T05:28:55.721Z,72.30
2019-01-15T05:31:22.778Z,72.26
2019-01-15T05:33:49.818Z,72.30
2019-01-15T05:36:16.859Z,72.32
2019-01-15T05:38:43.880Z,72.40
2019-01-15T05:41:10.971Z,72.35
2019-01-15T05:43:38.033Z,72.41
2019-01-15T05:46:05.097Z,72.29
2019-01-15T05:48:34.761Z,72.24
2019-01-15T05:51:36.616Z,72.13
2019-01-15T05:54:04.012Z,72.14
2019-01-15T05:56:31.067Z,71.83
2019-01-15T05:58:58.101Z,72.28
2019-01-15T06:01:25.160Z,71.69
2019-01-15T06:03:52.207Z,71.80
2019-01-15T06:06:19.249Z,70.34
2019-01-15T06:08:46.288Z,70.26
2019-01-15T06:11:13.323Z,69.96
2019-01-15T06:13:42.759Z,69.75
2019-01-15T06:16:09.350Z,69.88
2019-01-15T06:18:36.400Z,69.83
2019-01-15T06:21:03.436Z,69.89
2019-01-15T06:23:30.493Z,69.99
2019-01-15T06:25:57.548Z,70.15
2019-01-15T06:28:25.204Z,70.18
2019-01-15T06:30:52.342Z,70.35
2019-01-15T06:33:19.386Z,70.28
2019-01-15T06:35:46.427Z,70.37
2019-01-15T06:38:13.475Z,70.30
2019-01-15T06:40:40.497Z,70.46
2019-01-15T06:43:07.579Z,70.51
2019-01-15T06:45:34.616Z,70.68
2019-01-15T06:48:01.642Z,70.78
2019-01-15T06:50:28.699Z,70.76
2019-01-15T06:52:55.737Z,70.82
2019-01-15T06:55:22.806Z,70.89
2019-01-15T06:57:49.833Z,71.01
2019-01-15T07:00:21.644Z,71.03
2019-01-15T07:02:48.676Z,71.05
2019-01-15T07:05:16.755Z,71.11
2019-01-15T07:07:43.794Z,71.17
2019-01-15T07:10:13.965Z,71.29
2019-01-15T07:12:41.028Z,71.18
2019-01-15T07:15:08.290Z,71.26
2019-01-15T07:17:35.356Z,71.33
2019-01-15T07:20:02.652Z,71.58
2019-01-15T07:22:29.691Z,71.29
2019-01-15T07:24:56.748Z,71.00
2019-01-15T07:27:23.785Z,71.33
2019-01-15T07:29:50.826Z,71.65
2019-01-15T07:32:17.902Z,71.98
2019-01-15T07:34:44.948Z,72.28
2019-01-15T07:37:12.007Z,73.52
2019-01-15T07:39:39.081Z,71.58
2019-01-15T07:42:06.133Z,69.53
2019-01-15T07:44:33.165Z,70.79
2019-01-15T07:47:00.212Z,71.95
2019-01-15T07:49:27.252Z,68.94
2019-01-15T07:51:54.284Z,68.79
2019-01-15T07:54:21.333Z,68.84
2019-01-15T07:56:48.388Z,69.59
2019-01-15T07:59:15.447Z,68.72
2019-01-15T08:01:43.077Z,68.62
2019-01-15T08:04:10.183Z,68.62
2019-01-15T08:06:37.208Z,69.14
2019-01-15T08:09:07.741Z,69.55
2019-01-15T08:11:34.778Z,69.52
2019-01-15T08:14:01.817Z,69.76
2019-01-15T08:16:28.887Z,69.47
2019-01-15T08:18:55.934Z,70.33
2019-01-15T08:21:22.965Z,69.72
2019-01-15T08:23:49.999Z,69.73
2019-01-15T08:26:17.044Z,69.99
2019-01-15T08:28:44.084Z,69.81
2019-01-15T08:31:11.125Z,69.86
2019-01-15T08:33:38.180Z,69.92
2019-01-15T08:36:05.222Z,69.60
2019-01-15T08:38:32.276Z,69.54
2019-01-15T08:40:59.296Z,69.49
2019-01-15T08:43:26.349Z,69.19
2019-01-15T08:45:55.345Z,69.07
2019-01-15T08:48:23.854Z,68.64
2019-01-15T08:50:52.020Z,68.37
2019-01-15T08:53:21.915Z,68.22
2019-01-15T08:55:50.859Z,68.42
2019-01-15T08:58:17.914Z,68.10
2019-01-15T09:00:44.991Z,68.11
2019-01-15T09:03:12.049Z,68.05
2019-01-15T09:05:39.126Z,68.34
2019-01-15T09:08:06.222Z,68.10
2019-01-15T09:10:33.294Z,67.95
2019-01-15T09:13:00.340Z,68.15
2019-01-15T09:15:27.375Z,67.80
2019-01-15T09:17:54.420Z,68.09
2019-01-15T09:20:21.468Z,68.04
2019-01-15T09:22:48.626Z,68.05
2019-01-15T09:25:15.681Z,67.50
2019-01-15T09:27:43.604Z,67.06
2019-01-15T09:30:15.840Z,67.29
2019-01-15T09:32:42.913Z,67.26
2019-01-15T09:35:09.942Z,67.09
2019-01-15T09:37:37.578Z,67.15
2019-01-15T09:40:05.055Z,66.85
2019-01-15T09:42:32.110Z,66.85
2019-01-15T09:44:59.246Z,66.47
2019-01-15T09:47:26.300Z,66.49
2019-01-15T09:49:53.324Z,66.27
2019-01-15T09:52:20.767Z,65.97
2019-01-15T09:54:47.908Z,65.88
2019-01-15T09:57:14.939Z,65.53
2019-01-15T09:59:41.978Z,65.32
2019-01-15T10:02:09.010Z,65.47
2019-01-15T10:04:36.036Z,65.14
2019-01-15T10:07:03.131Z,65.35
2019-01-15T10:09:30.182Z,64.91
2019-01-15T10:11:57.268Z,65.19
2019-01-15T10:14:24.305Z,64.95
2019-01-15T10:16:51.345Z,64.78
2019-01-15T10:19:18.439Z,65.04
2019-01-15T10:21:46.283Z,64.88
2019-01-15T10:24:13.339Z,64.82
2019-01-15T10:26:40.375Z,64.84
2019-01-15T10:29:07.438Z,64.02
2019-01-15T10:32:16.431Z,65.31
2019-01-15T10:37:44.520Z,66.91
2019-01-15T10:40:11.555Z,64.48
2019-01-15T10:42:38.678Z,62.24
2019-01-15T10:45:06.477Z,60.31
2019-01-15T10:47:33.500Z,59.72
2019-01-15T10:50:00.579Z,59.72
2019-01-15T10:52:27.823Z,60.55
2019-01-15T10:54:54.851Z,60.27
2019-01-15T10:57:21.908Z,60.27
2019-01-15T10:59:48.944Z,60.54
2019-01-15T11:02:16.017Z,60.60
2019-01-15T11:04:43.077Z,61.06
2019-01-15T11:07:10.150Z,61.11
2019-01-15T11:09:37.189Z,60.90
2019-01-15T11:12:04.259Z,60.31
2019-01-15T11:14:31.351Z,60.12
2019-01-15T11:16:58.419Z,60.19
2019-01-15T11:19:25.488Z,60.39
2019-01-15T11:21:52.538Z,60.18
2019-01-15T11:24:19.606Z,60.77
2019-01-15T11:26:46.737Z,60.63
2019-01-15T11:29:13.784Z,60.97
2019-01-15T11:31:40.858Z,60.58
2019-01-15T11:34:07.941Z,60.64
2019-01-15T11:36:35.132Z,60.91
2019-01-15T11:39:04.183Z,60.10
2019-01-15T11:41:31.243Z,60.35
2019-01-15T11:43:58.296Z,60.41
2019-01-15T11:46:25.358Z,60.74
2019-01-15T11:48:52.425Z,60.40
2019-01-15T11:51:19.481Z,60.23
2019-01-15T11:53:46.540Z,60.32
2019-01-15T11:56:13.588Z,59.86
2019-01-15T11:58:40.848Z,60.55
2019-01-15T12:01:27.506Z,60.42
2019-01-15T12:04:14.158Z,60.29
2019-01-15T12:07:03.774Z,59.87
2019-01-15T12:09:53.538Z,59.67
2019-01-15T12:12:55.097Z,59.35
2019-01-15T12:15:39.356Z,59.33
2019-01-15T12:18:35.058Z,59.45
2019-01-15T12:21:30.492Z,59.39
2019-01-15T12:24:15.546Z,59.10
2019-01-15T12:27:01.630Z,59.04
2019-01-15T12:29:46.626Z,58.85
2019-01-15T12:32:24.413Z,58.93
2019-01-15T12:35:13.812Z,59.03
2019-01-15T12:38:00.460Z,58.37
2019-01-15T12:40:47.792Z,58.08
2019-01-15T12:43:34.438Z,57.95
2019-01-15T12:46:19.260Z,57.53
2019-01-15T12:49:04.562Z,57.96
2019-01-15T12:51:51.228Z,58.47
2019-01-15T12:54:43.718Z,58.40
2019-01-15T12:57:33.213Z,58.31
2019-01-15T13:00:25.792Z,58.85
2019-01-15T13:03:12.489Z,58.28
2019-01-15T13:06:01.888Z,58.50
2019-01-15T13:08:46.984Z,58.55
2019-01-15T13:11:27.753Z,58.70
2019-01-15T13:14:17.442Z,59.08
2019-01-15T13:17:13.279Z,58.79
2019-01-15T13:19:58.363Z,58.86
2019-01-15T13:22:47.611Z,58.41
2019-01-15T13:25:34.355Z,58.41
2019-01-15T13:28:21.685Z,58.69
2019-01-15T13:31:06.346Z,58.96
2019-01-15T13:33:46.913Z,59.33
2019-01-15T13:36:42.701Z,59.08
2019-01-15T13:39:27.739Z,59.21
2019-01-15T13:42:29.060Z,59.00
2019-01-15T13:45:14.150Z,59.17
2019-01-15T13:48:12.393Z,59.05
2019-01-15T13:50:57.479Z,59.01
2019-01-15T13:54:02.348Z,59.55
2019-01-15T13:56:47.424Z,59.52
2019-01-15T13:59:38.348Z,59.80
2019-01-15T14:02:35.436Z,59.91
2019-01-15T14:05:20.649Z,58.95
2019-01-15T14:08:06.036Z,58.78
2019-01-15T14:10:43.867Z,58.99
2019-01-15T14:13:33.662Z,58.81
2019-01-15T14:16:30.595Z,58.57
2019-01-15T14:19:20.274Z,58.78
2019-01-15T14:22:25.002Z,58.54
2019-01-15T14:25:13.423Z,58.95
2019-01-15T14:28:18.368Z,59.20
2019-01-15T14:31:07.775Z,59.36
2019-01-15T14:33:54.778Z,59.59
2019-01-15T14:36:39.976Z,59.63
2019-01-15T14:39:37.735Z,59.92
2019-01-15T14:42:37.704Z,59.93
2019-01-15T14:45:30.542Z,60.07
2019-01-15T14:48:15.580Z,60.69
2019-01-15T14:51:08.436Z,61.03
2019-01-15T14:54:06.658Z,60.99
2019-01-15T14:57:11.225Z,61.23
2019-01-15T15:00:00.910Z,61.12
2019-01-15T15:02:50.407Z,61.49
2019-01-15T15:05:32.866Z,61.82
2019-01-15T15:08:31.313Z,61.92
2019-01-15T15:11:16.771Z,62.03
2019-01-15T15:14:09.477Z,62.34
2019-01-15T15:16:44.559Z,62.54
2019-01-15T15:19:29.626Z,62.66
2019-01-15T15:22:15.048Z,62.79
2019-01-15T15:25:00.404Z,62.92
2019-01-15T15:27:49.835Z,63.15
2019-01-15T15:30:42.668Z,63.26
2019-01-15T15:33:29.317Z,63.26
2019-01-15T15:36:21.618Z,63.59
2019-01-15T15:39:08.250Z,63.78
2019-01-15T15:41:53.345Z,63.87
2019-01-15T15:44:38.316Z,64.82
2019-01-15T15:47:28.010Z,64.87
2019-01-15T15:50:13.356Z,64.44
2019-01-15T15:52:58.515Z,64.37
2019-01-15T15:55:53.762Z,64.29
2019-01-15T15:58:40.505Z,63.47
2019-01-15T16:01:27.199Z,63.82
2019-01-15T16:04:18.358Z,63.48
2019-01-15T16:07:03.493Z,63.87
2019-01-15T16:09:50.198Z,64.18
2019-01-15T16:12:30.863Z,64.38
2019-01-15T16:15:17.596Z,64.58
2019-01-15T16:18:10.009Z,64.72
2019-01-15T16:21:01.428Z,64.72
2019-01-15T16:23:47.981Z,64.71
2019-01-15T16:26:22.937Z,65.00
2019-01-15T16:29:02.068Z,64.94
2019-01-15T16:31:47.261Z,64.99
2019-01-15T16:34:28.870Z,65.04
2019-01-15T16:37:15.543Z,65.24
2019-01-15T16:40:02.205Z,65.33
2019-01-15T16:42:42.208Z,65.42
2019-01-15T16:45:29.460Z,65.55
2019-01-15T16:48:16.185Z,65.34
2019-01-15T16:50:58.995Z,65.44
2019-01-15T16:53:50.762Z,65.66
2019-01-15T16:56:37.437Z,65.51
2019-01-15T16:59:24.287Z,65.56
2019-01-15T17:02:10.930Z,65.67
2019-01-15T17:04:57.643Z,65.79
2019-01-15T17:07:44.560Z,66.08
2019-01-15T17:10:28.653Z,65.91
2019-01-15T17:13:16.168Z,65.64
2019-01-15T17:16:02.844Z,65.96
2019-01-15T17:18:49.773Z,65.97
2019-01-15T17:21:36.443Z,65.87
2019-01-15T17:24:23.202Z,65.96
2019-01-15T17:27:09.925Z,65.75
2019-01-15T17:29:56.626Z,65.75
2019-01-15T17:32:43.727Z,65.71
2019-01-15T17:35:30.422Z,65.74
2019-01-15T17:38:05.362Z,65.60
2019-01-15T17:40:52.061Z,65.42
2019-01-15T17:43:38.851Z,65.62
2019-01-15T17:46:25.586Z,65.74
2019-01-15T17:49:12.325Z,65.56
2019-01-15T17:51:59.009Z,65.47
2019-01-15T17:54:45.714Z,65.33
2019-01-15T17:57:32.402Z,65.27
2019-01-15T18:03:12.257Z,65.44
2019-01-15T18:06:00.976Z,65.25
2019-01-15T18:08:47.661Z,65.32
2019-01-15T18:11:34.402Z,65.08
2019-01-15T18:14:26.967Z,65.14
2019-01-15T18:17:17.647Z,64.96
2019-01-15T18:20:04.388Z,64.83
2019-01-15T18:22:51.279Z,63.81
2019-01-15T18:29:01.069Z,63.99
2019-01-15T18:31:47.808Z,64.11
2019-01-15T18:34:35.064Z,64.11
2019-01-15T18:37:22.130Z,64.37
2019-01-15T18:40:09.029Z,64.38
2019-01-15T18:46:04.216Z,64.10
2019-01-15T18:48:54.421Z,64.03
2019-01-15T18:51:41.492Z,64.06
2019-01-15T18:54:29.656Z,64.29
2019-01-15T18:57:16.901Z,64.39
2019-01-15T19:00:05.121Z,64.29
2019-01-15T19:02:52.250Z,64.47
2019-01-15T19:05:42.687Z,64.47
2019-01-15T19:08:30.684Z,64.66
2019-01-15T19:11:36.932Z,65.05
2019-01-15T19:14:24.057Z,65.52
2019-01-15T19:17:12.690Z,65.83
2019-01-15T19:19:54.696Z,66.23
2019-01-15T19:22:42.351Z,65.32
2019-01-15T19:25:29.988Z,65.00
2019-01-15T19:28:17.192Z,64.81
2019-01-15T19:31:04.977Z,64.92
2019-01-15T19:34:13.545Z,65.05
2019-01-15T19:37:01.473Z,65.00
2019-01-15T19:39:51.736Z,65.13
2019-01-15T19:42:41.306Z,65.22
2019-01-15T19:45:31.289Z,65.42
2019-01-15T19:48:38.893Z,65.54
2019-01-15T19:51:26.553Z,65.61
2019-01-15T19:54:15.290Z,65.57
2019-01-15T19:57:02.984Z,65.62
2019-01-15T19:59:53.588Z,65.93
2019-01-15T20:02:42.325Z,65.98
2019-01-15T20:05:31.602Z,66.14
2019-01-15T20:08:19.586Z,66.05
2019-01-15T20:11:07.508Z,65.97
2019-01-15T20:13:52.065Z,65.94
2019-01-15T20:16:59.009Z,65.86
2019-01-15T20:19:46.831Z,65.88
2019-01-15T20:22:34.358Z,66.24
2019-01-15T20:25:22.797Z,66.36
2019-01-15T20:28:10.287Z,66.32
2019-01-15T20:30:57.516Z,66.59
2019-01-15T20:34:04.115Z,66.73
2019-01-15T20:36:54.252Z,66.85
2019-01-15T20:39:35.953Z,66.90
2019-01-15T20:42:23.282Z,66.81
2019-01-15T20:45:10.888Z,66.69
2019-01-15T20:48:11.622Z,66.76
2019-01-15T20:51:03.601Z,66.90
2019-01-15T20:53:51.731Z,67.00
2019-01-15T20:56:39.707Z,67.08
2019-01-15T20:59:27.545Z,67.19
2019-01-15T21:02:15.081Z,67.33
2019-01-15T21:05:22.075Z,67.45
2019-01-15T21:08:09.682Z,67.54
2019-01-15T21:11:02.381Z,67.45
2019-01-15T21:14:11.999Z,67.58
2019-01-15T21:16:59.077Z,67.46
2019-01-15T21:19:48.428Z,67.41
2019-01-15T21:22:35.209Z,67.41
2019-01-15T21:25:14.585Z,67.44
2019-01-15T21:28:01.573Z,67.22
2019-01-15T21:33:54.746Z,66.90
2019-01-15T21:36:41.819Z,66.89
2019-01-15T21:39:28.647Z,66.78
2019-01-15T21:42:17.360Z,66.78
2019-01-15T21:45:04.136Z,66.75
2019-01-15T21:47:50.839Z,66.79
2019-01-15T21:50:37.545Z,66.66
2019-01-15T21:53:24.249Z,66.76
2019-01-15T21:56:11.736Z,66.67
2019-01-15T21:58:58.444Z,66.68
2019-01-15T22:01:45.179Z,66.73
2019-01-15T22:04:31.893Z,66.66
2019-01-15T22:07:18.631Z,66.74
2019-01-15T22:10:24.945Z,66.63
2019-01-15T22:13:11.645Z,66.69
2019-01-15T22:15:58.451Z,66.90
2019-01-15T22:18:37.633Z,66.71
2019-01-15T22:21:24.309Z,66.77
2019-01-15T22:24:10.975Z,66.86
2019-01-15T22:26:58.003Z,67.09
2019-01-15T22:29:44.729Z,67.06
2019-01-15T22:32:31.412Z,66.97
2019-01-15T22:35:18.130Z,66.94
2019-01-15T22:41:07.657Z,67.14
2019-01-15T22:43:54.425Z,67.02
2019-01-15T22:46:41.083Z,66.95
2019-01-15T22:49:27.769Z,67.12
2019-01-15T22:52:14.403Z,67.14
2019-01-15T22:55:01.035Z,67.15
2019-01-15T22:57:47.683Z,67.09
2019-01-15T23:00:58.546Z,67.24
2019-01-15T23:03:45.194Z,67.39
2019-01-15T23:06:24.842Z,67.31
2019-01-15T23:09:24.072Z,67.29
2019-01-15T23:12:11.457Z,67.27
2019-01-15T23:14:58.084Z,67.34
2019-01-15T23:17:44.740Z,67.23
2019-01-15T23:20:31.347Z,67.37
2019-01-15T23:23:11.178Z,67.32
2019-01-15T23:25:57.837Z,67.35
2019-01-15T23:28:44.485Z,67.49
2019-01-15T23:31:31.108Z,67.62
2019-01-15T23:34:17.739Z,67.46
2019-01-15T23:37:04.361Z,67.52
2019-01-15T23:39:50.994Z,67.58
2019-01-15T23:42:30.402Z,67.80
2019-01-15T23:45:17.041Z,67.66
2019-01-15T23:48:09.638Z,67.76
2019-01-15T23:50:58.842Z,67.62
2019-01-15T23:53:45.452Z,67.68
2019-01-15T23:56:32.090Z,67.67
2019-01-15T23:59:18.701Z,67.41
